• Join FlightAware (Why Join?)
  • Login
  • US Flag 
10:36PM EDT


 

Airport Tracker/Info


-or-


 

Live Flight TrackerFlight Track Log ✈ ASQ5337 ✈ 19-Jul-2013 ✈ KMGM - KATL

Flight Track Log - Related Links

Times and Time Zones

All times are in EDT time to prevent confusion due to time zone crossing. See the ASQ5337 flight status page for this flight to view local times or setup timezone preferences in your user account.

Time Position Orientation Groundspeed Altitude Reporting Facility
EDT Latitude Longitude Course Direction KTS MPH feet Rate Location/Type
01:56PM 32.3200 -86.2314 55° Northeast 232 267 5,400  Level Atlanta Center
01:57PM 32.3358 -86.1628 75° East 227 261 8,100 2,340 Climbing Atlanta Center
01:58PM 32.3600 -86.0897 69° East 220 253 10,100 1,500 Climbing Atlanta Center
01:59PM 32.4028 -86.0167 55° Northeast 241 277 11,200 1,020 Climbing Atlanta Center
02:00PM 32.5627 -85.9512 55° Northeast  Level FlightAware Approximate
02:00PM 32.4667 -85.9369 46° Northeast 290 334 12,200  Level Atlanta Center
02:01PM 32.6063 -85.8785 55° Northeast  Level FlightAware Approximate
02:01PM 32.5347 -85.8522 46° Northeast 320 368 13,200  Level Atlanta Center
02:02PM 32.6028 -85.7647 47° Northeast 346 398 14,600 1,440 Climbing Atlanta Center
02:03PM 32.6750 -85.6800 45° Northeast 358 412 16,100 1,200 Climbing Atlanta Center
02:04PM 32.7472 -85.5897 46° Northeast 363 418 17,000 360 Climbing Atlanta Center
02:05PM 32.8192 -85.4972 47° Northeast 375 432 16,900 -60 Descending Atlanta Center
02:06PM 32.8911 -85.4069 46° Northeast 375 432 16,900  Level Atlanta Center
02:07PM 32.9653 -85.3139 46° Northeast 370 426 16,900  Level Atlanta Center
02:08PM 33.0372 -85.2233 47° Northeast 370 426 16,900 -300 Level Atlanta Center
02:09PM 33.1153 -85.1275 46° Northeast 363 418 16,300 -1,500 Descending Atlanta Center
02:10PM 33.1850 -85.0342 48° Northeast 372 428 14,000 -1,440 Descending Atlanta Center
02:11PM 33.2544 -84.9406 48° Northeast 372 428 13,500 -960 Descending Atlanta Center
02:12PM 33.3197 -84.8542 48° Northeast 367 422 12,100 -780 Descending Atlanta Center
02:13PM 33.3850 -84.7653 49° Northeast 356 410 12,000 -60 Descending Atlanta Center
02:14PM 33.4503 -84.6786 48° Northeast 356 410 12,000  Level Atlanta Center
02:15PM 33.5133 -84.5919 49° Northeast 349 402 12,000 -60 Level Atlanta Center
02:16PM 33.5428 -84.5197 64° Northeast 305 351 11,900 -1,380 Descending Atlanta Center
02:17PM 33.5431 -84.4400 90° East 230 265 9,300 -2,760 Descending Atlanta Center
02:18PM 33.5500 -84.3333 86° East 222 255 5,600 -2,400 Descending Atlanta TRACON
02:19PM 33.5500 -84.2667 90° East 225 259 4,100 -900 Descending Atlanta TRACON
02:20PM 33.5500 -84.2000 90° East 225 259 4,000 -540 Descending Atlanta TRACON
02:21PM 33.5833 -84.1500 51° Northeast 235 270 3,100 -540 Descending Atlanta TRACON
02:22PM 33.6000 -84.1833 301° West 208 239 3,000 -60 Descending Atlanta TRACON
02:23PM 33.6167 -84.2500 287° West 192 221 3,000 -120 Level Atlanta TRACON
02:24PM 33.6167 -84.3167 270° West 200 230 2,800 -600 Descending Atlanta TRACON
02:25PM 33.6167 -84.3667 270° West 162 186 1,900 -900 Descending Atlanta TRACON
02:27PM 33.6333 -84.4167 301° West  Level FlightAware Approximate
02:34PM 33.6367 -84.4279 301° West  Level Estimated
02:35PM 33.6367 -84.4279 301° West  Level Estimated